Time;durP1;ratioP1;P1;durP2;ratioP2;P2;SDS_P1;SDS_P2;PMS_P1;PMS_P2;Temp;Humidity;BMP_temperature;BMP_pressure;BME280_temperature;BME280_humidity;BME280_pressure;Samples;Min_cycle;Max_cycle;Signal;HPM_P1;HPM_P2
2022/07/18 00:02:10;;;;;;;;;;;;;;;22.91;57.71;101445.31;5008794;28;20408;-83
2022/07/18 00:04:35;;;;;;;;;;;;;;;22.75;56.25;101451.38;5031724;28;19956;-82
2022/07/18 00:07:01;;;;;;;;;;;;;;;22.70;54.84;101449.28;5029235;28;19959;-82
2022/07/18 00:09:26;;;;;;;;;;;;;;;22.61;52.71;101449.78;5017249;28;20016;-83
2022/07/18 00:11:53;;;;;;;;;;;;;;;22.44;50.10;101439.34;5031070;28;19967;-84
2022/07/18 00:14:28;;;;;;;;;;;;;;;22.37;49.22;101438.56;5030272;28;19920;-82
2022/07/18 00:16:53;;;;;;;;;;;;;;;22.36;48.78;101434.16;5010286;28;19916;-82
2022/07/18 00:19:20;;;;;;;;;;;;;;;22.29;48.36;101430.63;5020780;28;20430;-81
2022/07/18 00:21:46;;;;;;;;;;;;;;;22.14;48.15;101450.88;5015105;28;19909;-82
2022/07/18 00:24:12;;;;;;;;;;;;;;;22.06;48.30;101442.94;5032583;28;19976;-82
2022/07/18 00:26:38;;;;;;;;;;;;;;;22.05;47.53;101449.44;5028040;28;19928;-82
2022/07/18 00:29:03;;;;;;;;;;;;;;;21.98;47.64;101445.06;5012936;28;20373;-82
2022/07/18 00:31:28;;;;;;;;;;;;;;;21.92;47.00;101453.09;5014866;28;20357;-83
2022/07/18 00:33:55;;;;;;;;;;;;;;;21.84;46.50;101450.59;5012133;28;20476;-83
2022/07/18 00:36:20;;;;;;;;;;;;;;;21.80;46.28;101449.34;5030341;28;19913;-82
2022/07/18 00:38:47;;;;;;;;;;;;;;;21.85;45.32;101456.91;5013051;28;20028;-82
2022/07/18 00:41:16;;;;;;;;;;;;;;;21.82;45.06;101451.84;5030140;28;19920;-81
2022/07/18 00:44:04;;;;;;;;;;;;;;;21.76;44.86;101450.00;5028625;28;20314;-82
2022/07/18 00:46:31;;;;;;;;;;;;;;;21.75;44.83;101445.56;5011897;28;19913;-82
2022/07/18 00:48:58;;;;;;;;;;;;;;;21.66;44.26;101448.56;5031487;28;19940;-80
2022/07/18 00:51:24;;;;;;;;;;;;;;;21.67;44.20;101450.22;5001674;28;20442;-82
2022/07/18 00:53:50;;;;;;;;;;;;;;;21.62;43.70;101452.78;5019803;28;19979;-82
2022/07/18 00:56:16;;;;;;;;;;;;;;;21.63;43.83;101453.59;5024395;28;19920;-82
2022/07/18 00:58:42;;;;;;;;;;;;;;;21.61;43.38;101461.19;5017327;28;19999;-82
2022/07/18 01:03:51;;;;;;;;;;;;;;;21.61;43.01;101462.06;5034408;28;19979;-82
2022/07/18 01:06:18;;;;;;;;;;;;;;;21.63;42.88;101459.09;5012703;28;20396;-81
2022/07/18 01:08:44;;;;;;;;;;;;;;;21.65;42.80;101460.53;5026618;28;19932;-82
2022/07/18 01:11:11;;;;;;;;;;;;;;;21.57;42.86;101477.22;5013542;28;19919;-82
2022/07/18 01:13:38;;;;;;;;;;;;;;;21.56;42.69;101475.50;5017400;28;20317;-83
2022/07/18 01:16:04;;;;;;;;;;;;;;;21.51;42.85;101478.06;5010685;28;19974;-81
2022/07/18 01:18:29;;;;;;;;;;;;;;;21.56;42.75;101475.50;5000322;28;20297;-81
2022/07/18 01:20:58;;;;;;;;;;;;;;;21.53;42.44;101481.41;5011668;28;20365;-82
2022/07/18 01:23:25;;;;;;;;;;;;;;;21.50;42.40;101481.84;5032862;28;19916;-83
2022/07/18 01:25:54;;;;;;;;;;;;;;;21.50;42.36;101481.84;5024538;28;19913;-81
2022/07/18 01:28:21;;;;;;;;;;;;;;;21.50;42.45;101481.84;5011404;28;19913;-79
2022/07/18 01:30:47;;;;;;;;;;;;;;;21.44;42.54;101483.53;5001434;28;19929;-80
2022/07/18 01:33:12;;;;;;;;;;;;;;;21.37;42.65;101481.84;5031059;28;20361;-81
2022/07/18 01:35:39;;;;;;;;;;;;;;;21.37;42.52;101479.94;5036120;28;19931;-81
2022/07/18 01:38:06;;;;;;;;;;;;;;;21.31;42.59;101483.53;5001400;28;19917;-82
2022/07/18 01:40:32;;;;;;;;;;;;;;;21.33;42.62;101499.72;5011855;28;19999;-81
2022/07/18 01:42:57;;;;;;;;;;;;;;;21.34;42.71;101504.16;5014185;28;19999;-81
2022/07/18 01:45:22;;;;;;;;;;;;;;;21.29;42.72;101497.41;5012600;28;19917;-82
2022/07/18 01:47:51;;;;;;;;;;;;;;;21.20;42.77;101501.41;5004429;28;19912;-81
2022/07/18 01:50:35;;;;;;;;;;;;;;;21.29;42.49;101497.41;5030079;28;19928;-82
2022/07/18 01:53:01;;;;;;;;;;;;;;;21.26;42.70;101506.06;5013620;28;20404;-83
2022/07/18 01:55:26;;;;;;;;;;;;;;;21.22;42.67;101513.00;5012695;28;19940;-82
2022/07/18 01:57:51;;;;;;;;;;;;;;;21.27;42.37;101504.16;4998790;28;20018;-85
2022/07/18 02:00:17;;;;;;;;;;;;;;;21.22;42.66;101517.63;5014536;28;20023;-82
2022/07/18 02:02:43;;;;;;;;;;;;;;;21.25;42.44;101520.75;5012660;28;19968;-81
2022/07/18 02:05:09;;;;;;;;;;;;;;;21.22;42.61;101504.78;5013685;28;19924;-84
2022/07/18 02:07:38;;;;;;;;;;;;;;;21.25;42.71;101507.09;5031594;28;20087;-82
2022/07/18 02:10:07;;;;;;;;;;;;;;;21.24;42.61;101501.84;5035133;28;19943;-81
2022/07/18 02:12:32;;;;;;;;;;;;;;;21.22;42.70;101499.31;5028342;28;20300;-81
2022/07/18 02:14:57;;;;;;;;;;;;;;;21.19;42.52;101498.88;5013886;28;20379;-83
2022/07/18 02:17:23;;;;;;;;;;;;;;;21.10;42.85;101503.75;5027771;28;20835;-81
2022/07/18 02:19:48;;;;;;;;;;;;;;;21.12;42.63;101503.50;5017676;28;19916;-82
2022/07/18 02:22:14;;;;;;;;;;;;;;;21.02;42.63;101512.13;5013308;28;19928;-81
2022/07/18 02:24:39;;;;;;;;;;;;;;;20.90;42.95;101516.53;5049710;28;19964;-82
2022/07/18 02:27:30;;;;;;;;;;;;;;;20.84;43.20;101508.13;5033459;28;19913;-80
2022/07/18 02:29:56;;;;;;;;;;;;;;;20.78;43.25;101524.53;5038186;28;19920;-81
2022/07/18 02:32:23;;;;;;;;;;;;;;;20.82;43.25;101520.34;5003362;28;19909;-81
2022/07/18 02:34:49;;;;;;;;;;;;;;;20.80;43.34;101526.00;5011975;28;19975;-82
2022/07/18 02:37:14;;;;;;;;;;;;;;;20.73;43.58;101518.84;5013115;28;19913;-81
2022/07/18 02:39:39;;;;;;;;;;;;;;;20.76;43.46;101512.94;5032676;28;19948;-81
2022/07/18 02:42:06;;;;;;;;;;;;;;;20.71;43.81;101521.78;5028863;28;19920;-82
2022/07/18 02:44:34;;;;;;;;;;;;;;;20.73;43.55;101533.34;4996505;28;20365;-82
2022/07/18 02:47:00;;;;;;;;;;;;;;;20.79;43.62;101523.47;5017034;28;19920;-82
2022/07/18 02:49:28;;;;;;;;;;;;;;;20.70;43.80;101517.38;5022670;28;19917;-82
2022/07/18 02:51:54;;;;;;;;;;;;;;;20.74;43.93;101515.88;4999553;28;20309;-81
2022/07/18 02:54:20;;;;;;;;;;;;;;;20.71;44.30;101516.31;5015973;28;19975;-82
2022/07/18 02:56:45;;;;;;;;;;;;;;;20.72;44.02;101507.06;5012857;28;20352;-83
2022/07/18 02:59:11;;;;;;;;;;;;;;;20.74;44.11;101513.16;5033791;28;19921;-83
2022/07/18 03:01:36;;;;;;;;;;;;;;;20.69;44.59;101517.56;5012806;28;19942;-83
2022/07/18 03:04:02;;;;;;;;;;;;;;;20.67;44.70;101520.50;5017945;28;20011;-83
2022/07/18 03:06:28;;;;;;;;;;;;;;;20.66;44.88;101527.03;5008795;28;20412;-82
2022/07/18 03:08:53;;;;;;;;;;;;;;;20.71;44.81;101520.94;5033776;28;19913;-83
2022/07/18 03:11:19;;;;;;;;;;;;;;;20.61;45.33;101526.81;5008918;28;19917;-83
2022/07/18 03:13:48;;;;;;;;;;;;;;;20.65;45.25;101536.28;5030218;28;20340;-81
2022/07/18 03:16:13;;;;;;;;;;;;;;;20.68;45.01;101552.25;5031580;28;20075;-82
2022/07/18 03:18:39;;;;;;;;;;;;;;;20.59;45.40;101537.94;5015341;28;20448;-83
2022/07/18 03:21:04;;;;;;;;;;;;;;;20.61;45.38;101524.91;5031368;28;19921;-82
2022/07/18 03:23:30;;;;;;;;;;;;;;;20.59;45.57;101539.81;5017111;28;19913;-83
2022/07/18 03:25:55;;;;;;;;;;;;;;;20.62;45.34;101539.41;5013741;28;19913;-83
2022/07/18 03:28:20;;;;;;;;;;;;;;;20.63;45.29;101546.56;5013784;28;19995;-82
2022/07/18 03:30:46;;;;;;;;;;;;;;;20.64;45.49;101550.97;5039446;28;19948;-81
2022/07/18 03:33:11;;;;;;;;;;;;;;;20.66;45.49;101548.88;5035428;28;19970;-83
2022/07/18 03:35:42;;;;;;;;;;;;;;;20.61;45.56;101551.38;5010928;28;19912;-83
2022/07/18 03:38:07;;;;;;;;;;;;;;;20.61;45.57;101549.50;5013476;28;19925;-81
2022/07/18 03:40:32;;;;;;;;;;;;;;;20.66;45.59;101546.16;5013320;28;19917;-82
2022/07/18 03:43:00;;;;;;;;;;;;;;;20.71;45.24;101551.00;5005335;28;19912;-83
2022/07/18 03:45:25;;;;;;;;;;;;;;;20.74;45.22;101547.84;5033637;28;19921;-84
2022/07/18 03:47:51;;;;;;;;;;;;;;;20.73;45.27;101552.47;5031053;28;19939;-82
2022/07/18 03:50:16;;;;;;;;;;;;;;;20.77;45.28;101556.47;5014794;28;19913;-82
2022/07/18 03:52:41;;;;;;;;;;;;;;;20.76;45.26;101551.22;5032658;28;19967;-83
2022/07/18 03:55:08;;;;;;;;;;;;;;;20.86;44.96;101563.44;5034447;28;19913;-82
2022/07/18 03:57:33;;;;;;;;;;;;;;;20.82;44.92;101566.78;5026325;28;19921;-82
2022/07/18 04:00:00;;;;;;;;;;;;;;;20.84;44.68;101565.53;5013742;28;19913;-82
2022/07/18 04:02:28;;;;;;;;;;;;;;;20.93;44.88;101568.06;5029719;28;19919;-82
2022/07/18 04:04:54;;;;;;;;;;;;;;;20.99;44.64;101570.81;5004604;28;20353;-81
2022/07/18 04:07:23;;;;;;;;;;;;;;;21.10;44.16;101569.34;4992366;28;19983;-83
2022/07/18 04:09:49;;;;;;;;;;;;;;;21.09;44.13;101575.84;5035892;28;19909;-82
2022/07/18 04:12:14;;;;;;;;;;;;;;;21.23;43.94;101574.81;5002603;28;19944;-82
2022/07/18 04:14:40;;;;;;;;;;;;;;;21.19;43.96;101568.09;5031899;28;20028;-83
2022/07/18 04:17:06;;;;;;;;;;;;;;;21.33;43.81;101570.81;5028551;28;19963;-84
2022/07/18 04:19:31;;;;;;;;;;;;;;;21.44;43.55;101567.50;5030571;28;19916;-84
2022/07/18 04:21:58;;;;;;;;;;;;;;;22.04;42.42;101576.47;5010516;28;19913;-82
2022/07/18 04:24:23;;;;;;;;;;;;;;;22.99;40.36;101575.00;5022302;28;19921;-83
2022/07/18 04:26:49;;;;;;;;;;;;;;;22.65;40.86;101571.63;5024764;28;20332;-82
2022/07/18 04:29:17;;;;;;;;;;;;;;;22.69;40.85;101572.88;5037687;28;19995;-82
2022/07/18 04:31:43;;;;;;;;;;;;;;;22.64;40.93;101575.41;5030964;28;19909;-84
2022/07/18 04:34:10;;;;;;;;;;;;;;;22.71;40.83;101584.44;5029842;28;20287;-83
2022/07/18 04:36:36;;;;;;;;;;;;;;;23.16;40.05;101578.91;5031077;28;19912;-82
2022/07/18 04:39:02;;;;;;;;;;;;;;;23.37;39.33;101585.94;5035568;28;19962;-82
2022/07/18 04:41:27;;;;;;;;;;;;;;;24.06;37.92;101584.00;5002706;28;19946;-82
2022/07/18 04:43:52;;;;;;;;;;;;;;;25.02;36.19;101585.09;5016694;28;20342;-83
2022/07/18 04:46:18;;;;;;;;;;;;;;;24.35;37.15;101598.91;5013120;28;19913;-82
2022/07/18 04:48:44;;;;;;;;;;;;;;;23.50;39.07;101596.78;5029460;28;19928;-83
2022/07/18 04:51:10;;;;;;;;;;;;;;;23.11;40.00;101589.72;5029022;28;19917;-83
2022/07/18 04:53:35;;;;;;;;;;;;;;;22.78;40.58;101590.75;5013640;28;19924;-83
2022/07/18 04:56:02;;;;;;;;;;;;;;;22.69;41.23;101586.56;5006884;28;19979;-81
2022/07/18 04:58:28;;;;;;;;;;;;;;;22.74;40.96;101598.53;5008516;28;20484;-84
2022/07/18 05:00:55;;;;;;;;;;;;;;;22.80;41.04;101598.72;5020442;28;20294;-84
2022/07/18 05:03:21;;;;;;;;;;;;;;;22.78;40.85;101604.44;5000606;28;19921;-86
2022/07/18 05:05:46;;;;;;;;;;;;;;;22.39;41.69;101594.50;5006345;28;19971;-82
2022/07/18 05:08:13;;;;;;;;;;;;;;;22.53;41.68;101596.97;5018288;28;19921;-84
2022/07/18 05:10:39;;;;;;;;;;;;;;;22.47;41.71;101605.22;5023221;28;20042;-83
2022/07/18 05:13:04;;;;;;;;;;;;;;;22.52;41.57;101603.50;5009339;28;20003;-82
2022/07/18 05:15:29;;;;;;;;;;;;;;;22.55;41.52;101605.81;4993306;28;19909;-82
2022/07/18 05:17:55;;;;;;;;;;;;;;;22.42;41.81;101603.13;4998677;28;20626;-83
2022/07/18 05:20:21;;;;;;;;;;;;;;;22.45;41.65;101605.44;4997325;28;19913;-85
2022/07/18 05:22:51;;;;;;;;;;;;;;;22.47;41.58;101608.78;4999215;28;19956;-85
2022/07/18 05:25:18;;;;;;;;;;;;;;;22.50;41.63;101613.84;5021194;28;19918;-81
2022/07/18 05:27:43;;;;;;;;;;;;;;;22.43;41.62;101614.91;5013528;28;20008;-85
2022/07/18 05:30:12;;;;;;;;;;;;;;;22.40;41.70;101634.53;5000539;28;19908;-83
2022/07/18 05:32:38;;;;;;;;;;;;;;;22.36;41.48;101625.91;5002794;28;19913;-83
2022/07/18 05:35:04;;;;;;;;;;;;;;;22.42;41.89;101630.50;4987821;28;19932;-84
2022/07/18 05:37:29;;;;;;;;;;;;;;;22.46;41.81;101617.25;5009441;28;19947;-83
2022/07/18 05:39:54;;;;;;;;;;;;;;;22.59;41.15;101630.88;4997680;28;19977;-78
2022/07/18 05:42:20;;;;;;;;;;;;;;;22.74;41.34;101625.97;5016536;28;19917;-82
2022/07/18 05:44:46;;;;;;;;;;;;;;;23.07;41.44;101629.63;5002805;28;20007;-84
2022/07/18 05:47:11;;;;;;;;;;;;;;;23.19;40.12;101630.59;5017588;28;19913;-84
2022/07/18 05:49:36;;;;;;;;;;;;;;;23.17;40.46;101635.44;5008224;28;19909;-83
2022/07/18 05:52:02;;;;;;;;;;;;;;;23.24;40.25;101635.41;4994280;28;19927;-84
2022/07/18 05:54:27;;;;;;;;;;;;;;;23.43;39.58;101633.56;4997160;28;19913;-84
2022/07/18 05:56:53;;;;;;;;;;;;;;;23.46;39.71;101642.22;5015233;28;19913;-86
2022/07/18 05:59:18;;;;;;;;;;;;;;;23.48;39.50;101636.50;5001027;28;20297;-85
2022/07/18 06:01:44;;;;;;;;;;;;;;;23.55;39.64;101640.00;4992140;28;19920;-85
2022/07/18 06:04:09;;;;;;;;;;;;;;;23.43;40.03;101644.56;5017940;28;19912;-86
2022/07/18 06:06:34;;;;;;;;;;;;;;;23.29;39.86;101650.13;5018538;28;19913;-85
2022/07/18 06:09:00;;;;;;;;;;;;;;;23.27;39.92;101644.03;5021357;28;20328;-85
2022/07/18 06:11:25;;;;;;;;;;;;;;;23.35;40.02;101653.91;5013875;28;19925;-86
2022/07/18 06:13:50;;;;;;;;;;;;;;;23.08;40.26;101656.81;5000320;28;19908;-84
2022/07/18 06:16:16;;;;;;;;;;;;;;;22.83;40.52;101645.75;4978331;28;19975;-84
2022/07/18 06:18:41;;;;;;;;;;;;;;;22.73;40.14;101634.38;4985071;28;19967;-85
2022/07/18 06:21:06;;;;;;;;;;;;;;;22.93;39.83;101651.59;5019091;28;19918;-83
2022/07/18 06:23:32;;;;;;;;;;;;;;;23.28;39.43;101664.91;5004068;28;19924;-85
2022/07/18 06:25:57;;;;;;;;;;;;;;;23.41;38.79;101658.47;5021909;28;19921;-84
2022/07/18 06:28:23;;;;;;;;;;;;;;;23.79;38.38;101650.19;5002512;28;19925;-84
2022/07/18 06:30:48;;;;;;;;;;;;;;;24.07;37.24;101659.88;5003813;28;19932;-83
2022/07/18 06:33:14;;;;;;;;;;;;;;;24.19;37.09;101658.06;5003035;28;20014;-85
2022/07/18 06:35:39;;;;;;;;;;;;;;;24.31;37.01;101662.78;5017652;28;19917;-83
2022/07/18 06:38:05;;;;;;;;;;;;;;;23.93;37.35;101661.06;5019972;28;19913;-85
2022/07/18 06:40:30;;;;;;;;;;;;;;;23.75;38.00;101651.72;5008214;28;20396;-85
2022/07/18 06:42:55;;;;;;;;;;;;;;;23.86;37.94;101661.13;5029837;28;19913;-85
2022/07/18 06:45:23;;;;;;;;;;;;;;;23.82;38.01;101672.78;5043210;28;19916;-85
2022/07/18 06:47:48;;;;;;;;;;;;;;;23.67;38.53;101657.47;5018036;28;19920;-85
2022/07/18 06:50:14;;;;;;;;;;;;;;;23.67;38.78;101667.56;5041962;28;20003;-84
2022/07/18 06:52:40;;;;;;;;;;;;;;;23.79;38.20;101661.19;5020695;28;19915;-85
2022/07/18 06:55:06;;;;;;;;;;;;;;;24.16;37.37;101661.25;5013923;28;19909;-84
2022/07/18 06:57:31;;;;;;;;;;;;;;;24.09;37.68;101654.13;5003428;28;20000;-85
2022/07/18 06:59:57;;;;;;;;;;;;;;;24.14;37.71;101640.56;5039667;28;19909;-83
2022/07/18 07:02:24;;;;;;;;;;;;;;;24.31;36.90;101636.16;5017001;28;19921;-84
2022/07/18 07:04:50;;;;;;;;;;;;;;;24.47;36.93;101651.22;5041308;28;19913;-84
2022/07/18 07:07:15;;;;;;;;;;;;;;;24.74;36.45;101639.88;5018120;28;20023;-86
2022/07/18 07:09:40;;;;;;;;;;;;;;;25.17;35.43;101655.34;5011840;28;19965;-84
2022/07/18 07:12:06;;;;;;;;;;;;;;;25.26;35.10;101648.47;5037802;28;19916;-84
2022/07/18 07:14:31;;;;;;;;;;;;;;;25.14;35.47;101644.84;5044922;28;19963;-86
2022/07/18 07:16:57;;;;;;;;;;;;;;;25.49;34.96;101633.94;5000330;28;19971;-86
2022/07/18 07:19:22;;;;;;;;;;;;;;;26.42;33.04;101636.94;5017735;28;19919;-85
2022/07/18 07:21:48;;;;;;;;;;;;;;;26.49;32.63;101634.88;5039574;28;19913;-84
2022/07/18 07:24:14;;;;;;;;;;;;;;;27.00;32.13;101640.63;5034224;28;20003;-84
2022/07/18 07:26:40;;;;;;;;;;;;;;;26.61;31.88;101645.91;5029103;28;20051;-85
2022/07/18 07:29:06;;;;;;;;;;;;;;;26.80;31.68;101646.56;5036088;28;19912;-85
2022/07/18 07:31:31;;;;;;;;;;;;;;;27.00;32.04;101638.69;5017141;28;20030;-84
2022/07/18 07:33:58;;;;;;;;;;;;;;;27.88;30.83;101654.88;5035479;28;20342;-83
2022/07/18 07:36:25;;;;;;;;;;;;;;;28.61;28.92;101655.63;4985968;28;19920;-86
2022/07/18 07:38:55;;;;;;;;;;;;;;;28.66;28.60;101664.03;5018570;28;19973;-85
2022/07/18 07:41:22;;;;;;;;;;;;;;;28.17;28.89;101672.19;5029159;28;19909;-84
2022/07/18 07:43:47;;;;;;;;;;;;;;;27.82;29.50;101669.69;4999496;28;19913;-84
2022/07/18 07:46:13;;;;;;;;;;;;;;;28.08;28.97;101676.47;5015835;28;19947;-84
2022/07/18 07:48:39;;;;;;;;;;;;;;;27.68;29.06;101678.31;5034226;28;19912;-82
2022/07/18 07:51:04;;;;;;;;;;;;;;;27.79;29.10;101666.34;5024087;28;19919;-84
2022/07/18 07:53:30;;;;;;;;;;;;;;;28.12;29.18;101683.13;5011982;28;19912;-85
2022/07/18 07:55:58;;;;;;;;;;;;;;;28.05;28.92;101674.19;5006520;28;19929;-84
2022/07/18 07:58:23;;;;;;;;;;;;;;;28.41;28.67;101672.78;5036161;28;20416;-85
2022/07/18 08:00:49;;;;;;;;;;;;;;;28.46;28.57;101677.56;4999881;28;19912;-86
2022/07/18 08:03:15;;;;;;;;;;;;;;;28.19;28.86;101672.78;5014849;28;19913;-84
2022/07/18 08:05:47;;;;;;;;;;;;;;;28.28;29.04;101676.75;5029349;28;20403;-83
2022/07/18 08:08:12;;;;;;;;;;;;;;;28.40;29.12;101671.97;5014267;28;19917;-84
2022/07/18 08:10:44;;;;;;;;;;;;;;;28.88;28.69;101669.53;5012040;28;19920;-89
2022/07/18 08:13:21;;;;;;;;;;;;;;;29.66;27.40;101666.41;5035758;28;19999;-84
2022/07/18 08:15:46;;;;;;;;;;;;;;;28.39;28.32;101672.19;5045891;28;19909;-88
2022/07/18 08:18:12;;;;;;;;;;;;;;;29.39;27.27;101672.84;5012301;28;19925;-86
2022/07/18 08:20:38;;;;;;;;;;;;;;;29.82;26.51;101678.50;5013527;28;19914;-81
2022/07/18 08:23:03;;;;;;;;;;;;;;;30.18;25.35;101695.38;5008363;28;19917;-84
2022/07/18 08:25:29;;;;;;;;;;;;;;;29.58;26.20;101692.69;5041749;28;19916;-81
2022/07/18 08:27:54;;;;;;;;;;;;;;;29.15;26.50;101688.97;5014976;28;19924;-81
2022/07/18 08:30:20;;;;;;;;;;;;;;;29.05;27.06;101697.09;5014348;28;19921;-87
2022/07/18 08:32:47;;;;;;;;;;;;;;;28.87;27.31;101686.38;5015788;28;20075;-83
2022/07/18 08:35:13;;;;;;;;;;;;;;;28.75;27.31;101689.28;5033948;28;20555;-81
2022/07/18 08:37:38;;;;;;;;;;;;;;;29.20;27.25;101696.47;5008515;28;20070;-81
2022/07/18 08:40:08;;;;;;;;;;;;;;;29.29;26.62;101685.75;5023248;28;19939;-83
2022/07/18 08:42:35;;;;;;;;;;;;;;;28.46;28.36;101697.78;5016940;28;19913;-81
2022/07/18 08:45:00;;;;;;;;;;;;;;;28.51;28.32;101694.25;5031937;28;19953;-80
2022/07/18 08:47:29;;;;;;;;;;;;;;;28.58;28.44;101698.47;5031642;28;19967;-83
2022/07/18 08:49:55;;;;;;;;;;;;;;;28.42;28.65;101694.66;5015925;28;20012;-80
2022/07/18 08:52:20;;;;;;;;;;;;;;;28.44;29.16;101688.03;5008471;28;20411;-81
2022/07/18 08:54:48;;;;;;;;;;;;;;;28.64;28.21;101690.28;5036418;28;19913;-79
2022/07/18 08:57:13;;;;;;;;;;;;;;;29.48;27.08;101688.97;5014371;28;19931;-80
2022/07/18 08:59:39;;;;;;;;;;;;;;;30.12;26.80;101696.47;5037822;28;20345;-77
2022/07/18 09:02:05;;;;;;;;;;;;;;;30.38;26.77;101681.66;5014884;28;20376;-82
2022/07/18 09:04:34;;;;;;;;;;;;;;;30.54;26.43;101690.06;5008470;28;19915;-82
2022/07/18 09:06:59;;;;;;;;;;;;;;;31.67;24.73;101683.69;5013849;28;19916;-84
2022/07/18 09:09:25;;;;;;;;;;;;;;;31.98;23.96;101683.69;5008554;28;19942;-83
2022/07/18 09:11:51;;;;;;;;;;;;;;;32.88;23.26;101670.91;4993637;28;19910;-83
2022/07/18 09:14:33;;;;;;;;;;;;;;;33.42;22.73;101672.78;5028871;28;20004;-85
2022/07/18 09:16:59;;;;;;;;;;;;;;;34.11;22.03;101681.94;5008444;28;19913;-89
2022/07/18 09:19:24;;;;;;;;;;;;;;;34.40;21.92;101686.69;5010410;28;19913;-84
2022/07/18 09:21:54;;;;;;;;;;;;;;;34.08;21.00;101679.72;5010383;28;19917;-84
2022/07/18 09:24:20;;;;;;;;;;;;;;;33.94;21.38;101684.34;5030881;28;20428;-83
2022/07/18 09:26:46;;;;;;;;;;;;;;;34.00;21.07;101688.75;5014689;28;19996;-80
2022/07/18 09:29:15;;;;;;;;;;;;;;;33.23;21.54;101686.59;5018666;28;19917;-79
2022/07/18 09:31:45;;;;;;;;;;;;;;;34.59;19.82;101675.56;5031889;28;20380;-80
2022/07/18 09:34:11;;;;;;;;;;;;;;;35.23;19.84;101674.13;5033055;28;20012;-82
2022/07/18 09:36:38;;;;;;;;;;;;;;;35.89;18.55;101676.94;5032589;28;19958;-82
2022/07/18 09:39:19;;;;;;;;;;;;;;;36.58;17.90;101671.44;5019587;28;19913;-81
2022/07/18 09:41:44;;;;;;;;;;;;;;;35.95;18.71;101681.31;5014260;28;19955;-80
2022/07/18 09:44:16;;;;;;;;;;;;;;;37.23;17.85;101680.63;5013364;28;20397;-81
2022/07/18 09:47:01;;;;;;;;;;;;;;;37.43;18.03;101677.31;5029023;28;19917;-82
2022/07/18 09:49:30;;;;;;;;;;;;;;;38.52;16.14;101676.97;5030051;28;19913;-81
2022/07/18 09:52:11;;;;;;;;;;;;;;;39.82;15.34;101678.97;5022289;28;20408;-82
2022/07/18 09:54:42;;;;;;;;;;;;;;;38.78;16.31;101681.81;5032706;28;19913;-81
2022/07/18 09:57:07;;;;;;;;;;;;;;;37.23;17.69;101675.03;5029814;28;19948;-80
2022/07/18 09:59:37;;;;;;;;;;;;;;;36.28;18.72;101679.31;4998468;28;19963;-81
2022/07/18 10:02:04;;;;;;;;;;;;;;;35.62;19.98;101686.94;5029831;28;20399;-81
2022/07/18 10:04:30;;;;;;;;;;;;;;;34.26;20.81;101672.59;5015101;28;19913;-80
2022/07/18 10:06:55;;;;;;;;;;;;;;;35.17;19.87;101685.66;5032601;28;20438;-80
2022/07/18 10:09:21;;;;;;;;;;;;;;;35.71;18.76;101670.28;5002481;28;19927;-84
2022/07/18 10:11:46;;;;;;;;;;;;;;;36.81;17.60;101691.09;5030020;28;20262;-84
2022/07/18 10:14:11;;;;;;;;;;;;;;;37.45;16.71;101680.66;5011733;28;19912;-81
2022/07/18 10:16:37;;;;;;;;;;;;;;;37.84;17.07;101673.50;5013085;28;19921;-81
2022/07/18 10:19:03;;;;;;;;;;;;;;;38.37;16.61;101681.00;4999546;28;19917;-81
2022/07/18 10:21:30;;;;;;;;;;;;;;;36.28;18.50;101670.06;5027875;28;19917;-82
2022/07/18 10:23:56;;;;;;;;;;;;;;;36.84;18.67;101676.47;5015993;28;19913;-83
2022/07/18 10:26:22;;;;;;;;;;;;;;;36.87;18.87;101673.03;5023765;28;20440;-85
2022/07/18 10:29:00;;;;;;;;;;;;;;;37.65;18.09;101670.06;5031608;28;19913;-82
2022/07/18 10:31:26;;;;;;;;;;;;;;;38.25;17.39;101666.75;5031594;28;19912;-82
2022/07/18 10:33:53;;;;;;;;;;;;;;;39.15;16.36;101671.94;5013755;28;19913;-85
2022/07/18 10:36:19;;;;;;;;;;;;;;;39.38;16.32;101668.94;5028549;28;19913;-85
2022/07/18 10:39:03;;;;;;;;;;;;;;;40.03;15.86;101664.16;5026627;28;19913;-82
2022/07/18 10:41:29;;;;;;;;;;;;;;;38.03;16.94;101655.63;5022559;28;19913;-82
2022/07/18 10:43:54;;;;;;;;;;;;;;;38.02;16.86;101663.19;5033098;28;20000;-80
2022/07/18 10:46:20;;;;;;;;;;;;;;;38.33;16.89;101663.16;5014665;28;20004;-81
2022/07/18 10:48:52;;;;;;;;;;;;;;;38.31;17.26;101665.47;5015934;28;21113;-82
2022/07/18 10:51:17;;;;;;;;;;;;;;;38.25;17.01;101652.72;5025334;28;19947;-81
2022/07/18 10:54:01;;;;;;;;;;;;;;;37.15;18.40;101648.59;5016052;28;21627;-81
2022/07/18 10:56:35;;;;;;;;;;;;;;;37.66;17.89;101650.13;5013516;28;19922;-81
2022/07/18 10:59:18;;;;;;;;;;;;;;;35.76;19.14;101650.63;5038473;28;19940;-81
2022/07/18 11:02:09;;;;;;;;;;;;;;;36.19;19.42;101639.19;5008803;28;19971;-80
2022/07/18 11:04:35;;;;;;;;;;;;;;;34.88;20.95;101648.34;5035553;28;19916;-81
2022/07/18 11:07:04;;;;;;;;;;;;;;;34.01;21.92;101646.59;5011713;28;19994;-80
2022/07/18 11:09:57;;;;;;;;;;;;;;;33.71;21.97;101638.56;5038608;28;20054;-80
2022/07/18 11:12:25;;;;;;;;;;;;;;;32.62;23.85;101631.22;5034196;28;19917;-81
2022/07/18 11:15:02;;;;;;;;;;;;;;;32.50;23.51;101635.19;5043095;28;19913;-82
2022/07/18 11:17:46;;;;;;;;;;;;;;;31.95;24.20;101628.63;5027542;28;19909;-80
2022/07/18 11:20:25;;;;;;;;;;;;;;;31.30;24.70;101617.25;5007277;28;19917;-80
2022/07/18 11:22:51;;;;;;;;;;;;;;;31.50;24.41;101617.28;5035249;28;20443;-82
2022/07/18 11:25:18;;;;;;;;;;;;;;;30.98;25.50;101615.56;5013832;28;20093;-82
2022/07/18 11:27:45;;;;;;;;;;;;;;;30.13;26.22;101607.44;5023024;28;20056;-81
2022/07/18 11:30:15;;;;;;;;;;;;;;;30.05;26.80;101613.50;5033930;28;19913;-81
2022/07/18 11:32:41;;;;;;;;;;;;;;;29.74;26.88;101607.78;5034072;28;20372;-83
2022/07/18 11:35:08;;;;;;;;;;;;;;;29.83;27.05;101613.66;5000465;28;19913;-83
2022/07/18 11:37:33;;;;;;;;;;;;;;;30.01;26.85;101613.19;5015288;28;19916;-81
2022/07/18 11:40:08;;;;;;;;;;;;;;;29.53;27.32;101606.78;5039552;28;19920;-81
2022/07/18 11:42:40;;;;;;;;;;;;;;;28.93;28.32;101603.16;5030946;28;19955;-84
2022/07/18 11:45:06;;;;;;;;;;;;;;;28.58;28.63;101615.50;5027583;28;19915;-82
2022/07/18 11:47:37;;;;;;;;;;;;;;;28.21;29.51;101604.22;5012720;28;19913;-81
2022/07/18 11:50:05;;;;;;;;;;;;;;;28.33;29.83;101599.41;5016041;28;19909;-80
2022/07/18 11:52:32;;;;;;;;;;;;;;;28.17;30.26;101598.38;5028200;28;19939;-81
2022/07/18 11:55:04;;;;;;;;;;;;;;;28.18;31.11;101601.97;5037775;28;19996;-83
2022/07/18 11:57:31;;;;;;;;;;;;;;;28.47;30.84;101605.44;5006720;28;20001;-80
2022/07/18 11:59:56;;;;;;;;;;;;;;;27.84;32.30;101602.06;5039101;28;19980;-82
2022/07/18 12:02:40;;;;;;;;;;;;;;;28.02;31.77;101597.31;5014571;28;20180;-91
2022/07/18 12:05:07;;;;;;;;;;;;;;;28.18;30.91;101600.03;5035125;28;20278;-84
2022/07/18 12:07:32;;;;;;;;;;;;;;;27.48;31.59;101593.19;5025628;28;19917;-85
2022/07/18 12:10:09;;;;;;;;;;;;;;;27.08;33.18;101593.31;5015830;28;19913;-82
2022/07/18 12:12:37;;;;;;;;;;;;;;;27.14;32.67;101593.16;5008513;28;19963;-85
2022/07/18 12:15:03;;;;;;;;;;;;;;;27.39;32.61;101599.38;5011992;28;19917;-86
2022/07/18 12:17:28;;;;;;;;;;;;;;;27.58;33.21;101589.72;5013802;28;20387;-80
2022/07/18 12:20:15;;;;;;;;;;;;;;;27.77;33.34;101591.16;5002353;28;19912;-83
2022/07/18 12:22:59;;;;;;;;;;;;;;;27.70;33.57;101587.72;5022444;28;20320;-82
2022/07/18 12:25:44;;;;;;;;;;;;;;;26.82;35.31;101589.25;5023300;28;19932;-80
2022/07/18 12:28:13;;;;;;;;;;;;;;;26.80;35.90;101586.72;5022595;28;19932;-83
2022/07/18 12:30:39;;;;;;;;;;;;;;;26.47;36.19;101576.41;5009644;28;20362;-84
2022/07/18 12:33:09;;;;;;;;;;;;;;;26.42;36.86;101570.78;5017607;28;19971;-80
2022/07/18 12:35:35;;;;;;;;;;;;;;;26.40;36.65;101570.19;5019251;28;19959;-84
2022/07/18 12:38:02;;;;;;;;;;;;;;;26.35;37.53;101579.19;5016620;28;19920;-83
2022/07/18 12:40:51;;;;;;;;;;;;;;;26.49;36.53;101571.47;5031331;28;19913;-82